Аэропорт: Ширак. Гюмри

ICAO: UDSG

METAR:
2020-08-12 07:00:00
UDSG 120700Z 02004KT 320V050 9999 SCT046CB 22/10 Q1016 R02/CLRD70 NOSIG
METAR:
2020-08-12 05:01:00
TAF COR UDSG 120501Z 1206/1306 06006KT 9999 SCT050 TEMPO 1206/1209 VRB20KT SCT040CB TEMPO 1209/1218 VRB20G30KT -TSRA BKN040CB